Terminal Aerodrome Forecast
Issued by NWS

Home | Current Version | Previous Version | Text Only | Print | Product List | Glossary On
Versions: 1 2 3 4 5 6 7 8 9 10 11 12 13 14 15 16 17
000
FTUS45 KABQ 302325
TAFLVS
TAF
KLVS 302325Z 3100/3124 21011G21KT P6SM SCT110
     FM310200 18011KT P6SM SCT120
     FM310600 04006KT P6SM SCT150
     FM312200 13013KT P6SM VCTS BKN090CB=

USA.gov is the U.S. government's official web portal to all federal, state and local government web resources and services.